Time;durP1;ratioP1;P1;durP2;ratioP2;P2;SDS_P1;SDS_P2;PMS_P1;PMS_P2;Temp;Humidity;BMP_temperature;BMP_pressure;BME280_temperature;BME280_humidity;BME280_pressure;Samples;Min_cycle;Max_cycle;Signal;HPM_P1;HPM_P2
2020/12/25 00:00:33;;;;;;;2.55;2.35;;;2.40;99.90;;;;;;5015883;28;20212;-87
2020/12/25 00:03:00;;;;;;;2.53;2.33;;;2.40;99.90;;;;;;5005364;28;20208;-86
2020/12/25 00:05:26;;;;;;;2.65;2.10;;;2.50;99.90;;;;;;5015322;28;20216;-88
2020/12/25 00:07:53;;;;;;;3.15;2.85;;;2.50;99.90;;;;;;4997319;28;20308;-87
2020/12/25 00:10:20;;;;;;;2.80;2.60;;;2.50;99.90;;;;;;4997288;28;20209;-87
2020/12/25 00:12:47;;;;;;;3.25;2.63;;;2.60;99.90;;;;;;4999486;28;20633;-89
2020/12/25 00:15:13;;;;;;;3.15;2.20;;;2.60;99.90;;;;;;4999287;28;20311;-88
2020/12/25 00:17:40;;;;;;;3.13;2.83;;;2.70;99.90;;;;;;5004381;28;20304;-88
2020/12/25 00:20:06;;;;;;;4.03;2.67;;;2.60;99.90;;;;;;5003980;28;20208;-87
2020/12/25 00:22:33;;;;;;;3.13;2.83;;;2.70;99.90;;;;;;5001283;28;20215;-87
2020/12/25 00:24:59;;;;;;;3.13;2.80;;;2.60;99.90;;;;;;4999668;28;20304;-88
2020/12/25 00:27:26;;;;;;;3.25;2.95;;;2.60;99.90;;;;;;4998992;28;20268;-88
2020/12/25 00:29:53;;;;;;;3.85;3.10;;;2.70;99.90;;;;;;4999422;28;20205;-89
2020/12/25 00:32:20;;;;;;;3.40;3.10;;;2.60;99.90;;;;;;4999550;28;20208;-88
2020/12/25 00:34:46;;;;;;;3.20;2.83;;;2.70;99.90;;;;;;5007416;28;20234;-88
2020/12/25 00:37:12;;;;;;;3.60;3.15;;;2.70;99.90;;;;;;5000293;28;20263;-88
2020/12/25 00:39:39;;;;;;;3.90;2.67;;;2.70;99.90;;;;;;4998722;28;20267;-91
2020/12/25 00:42:06;;;;;;;4.97;3.00;;;2.70;99.90;;;;;;4999389;28;20235;-88
2020/12/25 00:44:34;;;;;;;5.13;3.38;;;2.70;99.90;;;;;;5003171;28;20215;-88
2020/12/25 00:47:00;;;;;;;4.82;3.20;;;2.70;99.90;;;;;;5016405;28;20201;-88
2020/12/25 00:49:27;;;;;;;3.40;3.10;;;2.70;99.90;;;;;;5016703;28;20193;-87
2020/12/25 00:51:53;;;;;;;3.75;3.13;;;2.80;99.90;;;;;;5016694;28;20193;-90
2020/12/25 00:54:19;;;;;;;3.63;3.25;;;2.80;99.90;;;;;;5016456;28;20219;-86
2020/12/25 02:04:06;;;;;;;4.93;3.80;;;3.20;99.90;;;;;;5255921;22;20243;-86
2020/12/25 02:06:38;;;;;;;4.45;3.80;;;3.20;99.90;;;;;;4999015;28;20680;-86
2020/12/25 02:09:04;;;;;;;5.07;4.20;;;3.20;99.90;;;;;;4999236;28;20286;-86
2020/12/25 02:11:33;;;;;;;5.88;4.32;;;3.10;99.90;;;;;;5000282;28;20576;-86
2020/12/25 02:13:59;;;;;;;5.25;3.90;;;3.20;99.90;;;;;;4999765;28;20322;-87
2020/12/25 04:22:47;;;;;;;12.10;6.80;;;3.90;99.90;;;;;;5725691;23;20234;-86
2020/12/25 04:25:13;;;;;;;8.35;6.50;;;3.90;99.90;;;;;;5000709;28;20209;-83
2020/12/25 04:27:40;;;;;;;10.63;7.18;;;3.90;99.90;;;;;;5000437;28;20220;-85
2020/12/25 04:30:06;;;;;;;12.25;6.93;;;3.90;99.90;;;;;;5004576;28;20212;-86
2020/12/25 04:32:33;;;;;;;9.30;6.65;;;3.90;99.90;;;;;;5010332;28;20220;-85
2020/12/25 04:34:59;;;;;;;10.55;6.78;;;3.80;99.90;;;;;;5016605;28;20292;-85
2020/12/25 04:37:27;;;;;;;13.93;7.60;;;3.80;99.90;;;;;;5037120;23;20296;-87
2020/12/25 04:39:54;;;;;;;9.70;6.65;;;3.70;99.90;;;;;;5009186;28;20278;-88
2020/12/25 04:42:21;;;;;;;11.45;8.13;;;3.80;99.90;;;;;;5007457;28;20216;-88
2020/12/25 04:44:48;;;;;;;10.82;7.70;;;3.80;99.90;;;;;;5009222;28;20499;-88
2020/12/25 04:47:15;;;;;;;14.35;8.25;;;3.90;99.90;;;;;;5017644;28;20220;-91
2020/12/25 04:49:42;;;;;;;7.78;6.70;;;3.80;99.90;;;;;;5023019;28;20204;-90
2020/12/25 04:52:08;;;;;;;13.25;8.27;;;3.90;99.90;;;;;;5023163;28;20188;-88
2020/12/25 04:54:35;;;;;;;12.68;7.90;;;3.90;99.90;;;;;;5022648;28;20215;-88
2020/12/25 04:57:02;;;;;;;13.02;8.25;;;3.80;99.90;;;;;;5022703;28;20228;-88
2020/12/25 04:59:30;;;;;;;11.77;8.60;;;3.90;99.90;;;;;;5022993;28;20227;-89
2020/12/25 05:01:57;;;;;;;11.35;7.95;;;3.90;99.90;;;;;;5022811;28;20246;-88
2020/12/25 05:04:24;;;;;;;14.32;7.53;;;3.80;99.90;;;;;;5022975;28;20209;-90
2020/12/25 05:06:52;;;;;;;11.98;8.63;;;3.80;99.90;;;;;;5022322;28;20221;-87
2020/12/25 05:09:21;;;;;;;11.50;7.85;;;3.80;99.90;;;;;;5019977;28;20248;-88
2020/12/25 05:12:36;;;;;;;9.98;7.15;;;3.90;99.90;;;;;;5017858;28;20210;-87
2020/12/25 05:15:09;;;;;;;16.20;8.27;;;3.80;99.90;;;;;;5017545;28;20316;-88
2020/12/25 05:17:36;;;;;;;12.70;8.10;;;3.90;99.90;;;;;;5017669;28;20237;-88
2020/12/25 05:20:04;;;;;;;12.77;8.00;;;3.90;99.90;;;;;;5015774;28;20552;-88
2020/12/25 05:22:31;;;;;;;12.13;7.68;;;3.90;99.90;;;;;;5018261;28;20665;-88
2020/12/25 05:25:01;;;;;;;14.75;8.05;;;3.90;99.90;;;;;;5018761;28;20204;-88
2020/12/25 05:27:29;;;;;;;17.13;9.23;;;3.90;99.90;;;;;;5017594;28;20228;-87
2020/12/25 05:29:57;;;;;;;13.82;8.63;;;3.90;99.90;;;;;;5018198;28;20201;-87
2020/12/25 05:32:28;;;;;;;11.63;8.63;;;4.00;99.90;;;;;;5018423;28;20212;-88
2020/12/25 05:34:56;;;;;;;11.65;7.88;;;4.00;99.90;;;;;;5018232;28;20213;-87
2020/12/25 05:37:23;;;;;;;16.23;9.15;;;4.00;99.90;;;;;;5018589;28;20363;-88
2020/12/25 05:39:50;;;;;;;10.45;7.20;;;4.10;99.90;;;;;;5019136;28;20599;-88
2020/12/25 05:42:17;;;;;;;16.13;7.97;;;4.10;99.90;;;;;;5012673;28;20600;-89
2020/12/25 05:44:47;;;;;;;10.50;8.02;;;4.20;99.90;;;;;;5013017;28;20209;-89
2020/12/25 05:47:14;;;;;;;11.55;8.40;;;4.20;99.90;;;;;;5018948;28;20278;-89
2020/12/25 05:49:42;;;;;;;11.65;7.45;;;4.10;99.90;;;;;;5019209;28;20196;-88
2020/12/25 05:52:09;;;;;;;11.25;7.97;;;4.00;99.90;;;;;;5019466;28;20204;-89
2020/12/25 05:54:38;;;;;;;13.60;7.88;;;4.00;99.90;;;;;;5019394;28;20209;-88
2020/12/25 05:57:08;;;;;;;11.45;7.88;;;4.00;99.90;;;;;;5019073;28;20221;-88
2020/12/25 05:59:35;;;;;;;13.50;8.50;;;4.10;99.90;;;;;;5013169;28;20221;-87
2020/12/25 06:02:03;;;;;;;12.38;8.38;;;4.10;99.90;;;;;;5003330;28;20217;-87
2020/12/25 06:04:31;;;;;;;11.65;7.35;;;4.10;99.90;;;;;;5016113;28;20228;-88
2020/12/25 06:06:59;;;;;;;12.35;8.10;;;4.10;99.90;;;;;;5017049;28;20217;-87
2020/12/25 06:09:30;;;;;;;12.95;8.07;;;4.10;99.90;;;;;;5011101;28;20621;-87
2020/12/25 06:11:58;;;;;;;12.35;8.13;;;4.10;99.90;;;;;;5007929;28;20229;-88
2020/12/25 06:14:24;;;;;;;11.30;7.43;;;4.10;99.90;;;;;;5009310;28;20201;-88
2020/12/25 06:17:03;;;;;;;12.05;7.65;;;4.10;99.90;;;;;;5008774;28;20615;-88
2020/12/25 06:19:45;;;;;;;12.68;7.57;;;4.10;99.90;;;;;;5006900;28;20200;-87
2020/12/25 06:22:20;;;;;;;15.43;7.68;;;4.10;99.90;;;;;;5015458;28;20252;-88
2020/12/25 06:24:50;;;;;;;9.35;6.80;;;4.10;99.90;;;;;;5015588;28;20223;-88
2020/12/25 06:27:16;;;;;;;15.07;8.23;;;4.00;99.90;;;;;;5015376;28;20225;-89
2020/12/25 06:29:44;;;;;;;11.85;7.65;;;4.00;99.90;;;;;;5016852;28;20285;-88
2020/12/25 06:32:11;;;;;;;12.20;7.53;;;3.90;99.90;;;;;;5017867;28;20201;-87
2020/12/25 06:34:44;;;;;;;12.35;7.63;;;4.00;99.90;;;;;;5018399;28;20208;-88
2020/12/25 06:37:13;;;;;;;14.68;7.95;;;4.00;99.90;;;;;;5018113;28;20256;-88
2020/12/25 06:39:48;;;;;;;11.23;7.07;;;4.00;99.90;;;;;;5018293;28;20216;-87
2020/12/25 06:42:14;;;;;;;14.40;8.25;;;4.00;99.90;;;;;;5018335;28;20197;-88
2020/12/25 06:44:48;;;;;;;11.13;8.27;;;4.10;99.90;;;;;;5018304;28;20198;-88
2020/12/25 06:47:27;;;;;;;15.18;8.45;;;4.10;99.90;;;;;;5018189;28;20239;-90
2020/12/25 06:49:54;;;;;;;10.50;8.10;;;4.10;99.90;;;;;;5017825;28;20228;-89
2020/12/25 06:52:31;;;;;;;11.63;7.45;;;4.10;99.90;;;;;;5015780;28;20205;-89
2020/12/25 06:54:59;;;;;;;11.93;7.28;;;4.10;99.90;;;;;;5018260;28;20205;-88
2020/12/25 06:57:28;;;;;;;12.63;7.25;;;4.10;99.90;;;;;;5017695;28;20209;-86
2020/12/25 06:59:58;;;;;;;10.70;7.80;;;4.00;99.90;;;;;;5017925;28;20270;-89
2020/12/25 07:02:26;;;;;;;13.32;7.97;;;4.10;99.90;;;;;;5016019;28;20213;-88
2020/12/25 07:05:00;;;;;;;8.40;6.18;;;4.10;99.90;;;;;;5007009;28;20313;-88
2020/12/25 07:07:33;;;;;;;12.75;7.90;;;4.00;99.90;;;;;;5002568;28;20280;-87
2020/12/25 07:10:08;;;;;;;12.02;7.28;;;4.10;99.90;;;;;;5002910;28;20332;-86
2020/12/25 07:12:35;;;;;;;10.50;7.32;;;4.10;99.90;;;;;;5002220;28;20205;-87
2020/12/25 07:15:02;;;;;;;9.82;7.00;;;4.10;99.90;;;;;;5001765;28;20284;-88
2020/12/25 07:17:29;;;;;;;8.02;6.07;;;4.10;99.90;;;;;;5002934;28;20226;-87
2020/12/25 07:19:55;;;;;;;10.80;6.55;;;4.10;99.90;;;;;;5011960;28;20247;-87
2020/12/25 07:22:22;;;;;;;10.45;6.82;;;4.10;99.90;;;;;;5015254;28;20324;-86
2020/12/25 07:24:49;;;;;;;11.13;6.20;;;4.10;99.90;;;;;;5013188;28;20200;-88
2020/12/25 07:27:17;;;;;;;9.07;5.80;;;4.10;99.90;;;;;;5013057;28;20233;-87
2020/12/25 07:29:45;;;;;;;7.22;5.45;;;4.10;99.90;;;;;;5009957;28;20277;-88
2020/12/25 07:32:12;;;;;;;9.85;5.82;;;4.00;99.90;;;;;;5016046;28;20205;-90
2020/12/25 07:34:39;;;;;;;7.35;4.95;;;4.00;99.90;;;;;;5017147;28;20256;-87
2020/12/25 07:37:09;;;;;;;7.72;4.95;;;4.10;99.90;;;;;;5013770;28;20224;-86
2020/12/25 07:47:44;;;;;;;7.10;4.88;;;4.00;97.70;;;;;;4984133;28;20193;-83
2020/12/25 07:50:10;;;;;;;10.85;5.65;;;4.00;96.60;;;;;;4989807;28;20229;-83
2020/12/25 07:52:53;;;;;;;7.93;5.22;;;4.00;96.40;;;;;;4988801;28;20239;-83
2020/12/25 07:55:23;;;;;;;10.27;5.60;;;4.00;95.70;;;;;;4980119;28;20236;-83
2020/12/25 07:57:51;;;;;;;7.63;5.47;;;4.00;95.60;;;;;;4979048;28;20210;-84
2020/12/25 08:00:18;;;;;;;7.43;5.20;;;4.00;95.30;;;;;;5011345;23;20243;-87
2020/12/25 08:02:45;;;;;;;6.72;5.50;;;4.00;95.20;;;;;;5003682;28;20217;-88
2020/12/25 08:05:12;;;;;;;5.90;4.97;;;4.00;94.30;;;;;;5003840;28;20209;-87
2020/12/25 08:07:40;;;;;;;7.00;5.75;;;4.00;93.90;;;;;;5002634;28;20287;-86
2020/12/25 08:10:12;;;;;;;7.13;5.03;;;4.00;93.90;;;;;;5003487;28;20312;-88
2020/12/25 08:12:44;;;;;;;11.88;5.15;;;4.00;94.20;;;;;;5012533;28;20273;-87
2020/12/25 08:15:12;;;;;;;8.57;6.15;;;4.00;94.20;;;;;;5008816;28;20297;-88
2020/12/25 08:17:40;;;;;;;8.88;5.28;;;4.10;94.00;;;;;;5005465;28;20229;-87
2020/12/25 08:20:07;;;;;;;9.35;5.90;;;4.00;93.70;;;;;;5004209;28;20241;-88
2020/12/25 08:22:37;;;;;;;11.40;6.60;;;4.00;93.70;;;;;;5004713;28;20213;-90
2020/12/25 11:32:07;;;;;;;7.15;3.70;;;4.90;64.30;;;;;;5608890;23;20262;-85
2020/12/25 11:34:34;;;;;;;7.38;4.15;;;4.90;63.10;;;;;;5000123;28;20593;-85
2020/12/25 11:37:00;;;;;;;3.63;3.20;;;4.90;63.60;;;;;;5003560;28;20229;-86
2020/12/25 11:39:27;;;;;;;4.68;3.65;;;4.90;62.70;;;;;;5012191;28;20209;-85
2020/12/25 11:41:54;;;;;;;5.38;3.60;;;5.00;62.10;;;;;;5010171;28;20241;-85
2020/12/25 11:44:20;;;;;;;6.47;3.33;;;5.00;61.00;;;;;;5016115;28;20228;-86
2020/12/25 11:46:47;;;;;;;3.63;3.08;;;4.80;60.00;;;;;;5016907;28;20198;-86
2020/12/25 11:49:15;;;;;;;3.58;2.90;;;4.90;60.00;;;;;;5017293;28;20205;-85
2020/12/25 11:51:41;;;;;;;4.45;3.20;;;4.90;58.50;;;;;;5017097;28;20217;-85
2020/12/25 11:54:08;;;;;;;5.15;3.50;;;5.00;58.10;;;;;;5016833;28;20197;-85
2020/12/25 11:56:34;;;;;;;4.00;2.65;;;5.00;57.00;;;;;;5016858;28;20222;-85
2020/12/25 11:59:02;;;;;;;3.50;3.20;;;4.80;55.30;;;;;;5016313;28;20217;-84
2020/12/25 12:01:30;;;;;;;4.60;3.30;;;4.80;55.40;;;;;;5015861;28;20303;-85
2020/12/25 12:03:57;;;;;;;3.33;2.63;;;4.80;55.10;;;;;;5016694;28;20219;-84
2020/12/25 12:06:25;;;;;;;3.83;2.45;;;4.60;53.00;;;;;;5016776;28;20205;-85
2020/12/25 12:08:53;;;;;;;4.93;2.50;;;4.50;53.70;;;;;;5016783;28;20270;-85
2020/12/25 12:11:19;;;;;;;3.00;2.50;;;4.50;52.30;;;;;;5016610;28;20188;-85
2020/12/25 12:13:46;;;;;;;1.92;1.70;;;4.60;52.50;;;;;;5014690;28;20240;-85
2020/12/25 12:16:14;;;;;;;4.25;2.40;;;4.70;52.80;;;;;;5012880;28;20236;-85
2020/12/25 12:18:41;;;;;;;3.40;2.10;;;4.80;51.40;;;;;;5016544;28;20209;-83
2020/12/25 12:21:09;;;;;;;2.80;2.25;;;4.80;50.50;;;;;;5016531;28;20221;-84
2020/12/25 12:23:37;;;;;;;2.45;2.20;;;4.70;51.10;;;;;;5016402;28;20193;-84
2020/12/25 12:26:04;;;;;;;2.45;2.20;;;4.70;51.30;;;;;;5016334;28;20231;-84
2020/12/25 12:28:31;;;;;;;2.25;2.05;;;4.70;52.50;;;;;;5016785;28;20224;-85
2020/12/25 12:30:57;;;;;;;2.30;2.10;;;4.60;51.30;;;;;;5011021;28;20209;-85
2020/12/25 12:33:24;;;;;;;2.40;2.20;;;4.50;51.40;;;;;;5001981;28;20268;-84
2020/12/25 12:35:50;;;;;;;2.13;1.90;;;4.40;50.90;;;;;;5001653;28;20296;-84
2020/12/25 12:38:17;;;;;;;2.17;1.90;;;4.40;50.70;;;;;;5002974;28;20626;-84
2020/12/25 12:40:45;;;;;;;2.40;2.20;;;4.50;50.30;;;;;;5002067;28;20530;-85
2020/12/25 12:43:11;;;;;;;2.28;2.08;;;4.40;50.10;;;;;;5015597;28;20239;-84
2020/12/25 12:45:37;;;;;;;2.42;2.22;;;4.50;50.30;;;;;;5016228;28;20208;-84
2020/12/25 12:48:04;;;;;;;2.88;2.60;;;4.50;49.60;;;;;;5015963;28;20209;-84
2020/12/25 12:50:30;;;;;;;2.50;2.30;;;4.60;49.70;;;;;;5017774;28;20207;-85
2020/12/25 12:52:57;;;;;;;3.63;2.05;;;4.60;49.70;;;;;;5019896;28;20235;-84
2020/12/25 12:55:23;;;;;;;3.58;2.10;;;4.60;49.00;;;;;;5009876;28;20730;-84
2020/12/25 12:57:51;;;;;;;2.90;2.20;;;4.70;49.50;;;;;;5009736;28;20220;-83
2020/12/25 13:00:17;;;;;;;2.40;1.80;;;4.70;49.10;;;;;;5006740;28;20205;-84
2020/12/25 13:02:44;;;;;;;2.55;1.80;;;4.70;48.50;;;;;;5006946;28;20240;-82
2020/12/25 13:05:10;;;;;;;2.45;1.67;;;4.70;48.50;;;;;;5007524;28;20201;-83
2020/12/25 13:07:40;;;;;;;2.58;1.77;;;4.70;48.60;;;;;;5006549;28;20296;-84
2020/12/25 13:10:06;;;;;;;2.25;2.00;;;4.70;48.30;;;;;;5008804;28;20566;-83
2020/12/25 13:12:33;;;;;;;2.15;1.95;;;4.70;48.80;;;;;;5006729;28;20288;-82
2020/12/25 13:15:00;;;;;;;2.42;1.95;;;4.80;48.60;;;;;;5006455;28;20225;-84
2020/12/25 13:17:27;;;;;;;2.65;1.85;;;4.80;48.80;;;;;;5008658;28;20630;-83
2020/12/25 13:19:53;;;;;;;2.70;2.50;;;4.90;49.60;;;;;;5007142;28;20220;-83
2020/12/25 13:22:20;;;;;;;2.92;2.35;;;4.90;48.80;;;;;;5005806;28;20292;-83
2020/12/25 13:24:46;;;;;;;1.90;1.80;;;4.90;48.10;;;;;;5006495;28;20656;-83
2020/12/25 13:27:13;;;;;;;3.15;2.13;;;4.90;47.90;;;;;;5006209;28;20630;-84
2020/12/25 13:29:39;;;;;;;3.45;2.05;;;4.90;48.00;;;;;;5012288;28;20221;-83
2020/12/25 13:32:07;;;;;;;2.20;2.00;;;4.80;48.80;;;;;;5014794;28;20664;-83
2020/12/25 13:34:33;;;;;;;3.47;2.50;;;4.80;48.60;;;;;;5011644;28;20216;-83
2020/12/25 13:37:00;;;;;;;3.63;2.47;;;4.70;49.00;;;;;;5011705;28;20364;-84
2020/12/25 13:39:26;;;;;;;3.72;2.45;;;4.60;49.80;;;;;;5016079;28;20212;-84
2020/12/25 13:41:53;;;;;;;5.40;2.92;;;4.60;51.50;;;;;;5017195;28;20228;-84
2020/12/25 13:44:21;;;;;;;2.95;2.53;;;4.60;52.20;;;;;;5019203;28;20297;-85
2020/12/25 13:46:47;;;;;;;3.10;2.63;;;4.60;52.00;;;;;;5006012;28;20241;-84
2020/12/25 13:49:15;;;;;;;2.95;2.20;;;4.70;52.20;;;;;;5009999;28;20244;-85
2020/12/25 13:51:41;;;;;;;2.90;2.60;;;4.80;52.50;;;;;;5010722;28;20221;-84
2020/12/25 13:54:08;;;;;;;5.30;2.45;;;4.80;51.50;;;;;;5013292;28;20228;-84
2020/12/25 13:56:35;;;;;;;2.67;2.47;;;4.90;51.80;;;;;;5005232;28;20240;-84
2020/12/25 13:59:02;;;;;;;2.67;2.20;;;5.00;50.90;;;;;;5012145;28;20225;-84
2020/12/25 14:01:29;;;;;;;3.10;2.63;;;5.00;51.10;;;;;;5017169;28;20220;-84
2020/12/25 14:03:55;;;;;;;2.58;2.25;;;5.00;51.10;;;;;;5013597;28;20212;-84
2020/12/25 14:06:28;;;;;;;3.25;2.38;;;5.00;51.80;;;;;;5009147;28;20205;-84
2020/12/25 14:08:56;;;;;;;2.85;2.10;;;4.90;52.10;;;;;;5008344;28;20210;-84
2020/12/25 14:11:23;;;;;;;3.92;2.90;;;4.90;52.40;;;;;;5012128;28;20212;-85
2020/12/25 14:13:49;;;;;;;3.88;2.40;;;4.90;52.20;;;;;;5009064;28;20232;-86
2020/12/25 14:16:16;;;;;;;3.05;2.47;;;4.90;50.60;;;;;;5003482;28;20264;-85
2020/12/25 14:18:45;;;;;;;2.95;2.40;;;5.00;50.60;;;;;;5004859;28;20245;-85
2020/12/25 14:21:13;;;;;;;2.35;2.15;;;4.90;49.40;;;;;;5004408;28;20251;-85
2020/12/25 14:23:40;;;;;;;2.78;2.50;;;4.90;49.70;;;;;;5005547;28;20240;-83
2020/12/25 14:26:11;;;;;;;4.88;2.80;;;4.90;49.50;;;;;;5009119;28;20204;-84
2020/12/25 14:28:37;;;;;;;2.20;2.00;;;4.90;48.30;;;;;;5005196;28;20256;-83
2020/12/25 14:31:04;;;;;;;3.00;2.45;;;4.90;49.10;;;;;;5017388;28;20203;-85
2020/12/25 14:33:30;;;;;;;2.80;2.60;;;4.80;49.60;;;;;;5018135;28;20209;-84
2020/12/25 14:35:57;;;;;;;3.30;2.22;;;4.70;50.40;;;;;;5011541;28;20253;-85
2020/12/25 14:38:23;;;;;;;2.58;2.38;;;4.60;49.80;;;;;;5009025;28;20677;-85
2020/12/25 14:40:51;;;;;;;3.05;2.35;;;4.60;49.80;;;;;;5009479;28;20217;-85
2020/12/25 14:43:18;;;;;;;6.38;2.15;;;4.50;50.20;;;;;;5005573;28;20319;-84
2020/12/25 14:45:44;;;;;;;2.10;1.77;;;4.40;50.80;;;;;;5010353;28;20216;-84
2020/12/25 14:48:10;;;;;;;2.20;1.75;;;4.30;51.50;;;;;;5012123;28;20220;-84
2020/12/25 14:50:37;;;;;;;3.90;1.90;;;4.30;51.40;;;;;;5013089;28;20204;-84
2020/12/25 14:53:03;;;;;;;4.75;2.20;;;4.20;51.80;;;;;;5011853;28;20236;-84
2020/12/25 14:55:30;;;;;;;4.55;2.25;;;4.20;51.10;;;;;;5009828;28;20246;-83
2020/12/25 14:57:57;;;;;;;2.28;2.03;;;4.10;51.80;;;;;;5006563;28;20229;-83
2020/12/25 15:00:24;;;;;;;2.20;1.73;;;4.00;52.60;;;;;;5009269;28;20236;-83
2020/12/25 15:02:51;;;;;;;2.35;1.80;;;4.10;50.50;;;;;;5006130;28;20256;-84
2020/12/25 15:05:17;;;;;;;4.28;2.08;;;4.10;51.10;;;;;;5015448;28;20196;-82
2020/12/25 15:07:44;;;;;;;4.43;1.85;;;4.10;50.30;;;;;;5015363;28;20493;-83
2020/12/25 15:10:10;;;;;;;1.90;1.70;;;4.00;50.60;;;;;;5016409;28;20185;-82
2020/12/25 15:12:37;;;;;;;1.95;1.70;;;4.00;50.80;;;;;;5012120;28;20249;-82
2020/12/25 15:15:04;;;;;;;2.28;1.90;;;3.90;51.00;;;;;;5009711;28;20303;-83
2020/12/25 15:17:31;;;;;;;3.97;2.30;;;3.90;51.50;;;;;;5009839;28;20196;-82
2020/12/25 15:19:57;;;;;;;5.72;1.95;;;3.90;52.00;;;;;;5008045;28;20235;-82
2020/12/25 15:22:24;;;;;;;2.45;2.25;;;3.80;52.80;;;;;;5014899;28;20227;-82
2020/12/25 15:24:50;;;;;;;2.47;2.00;;;3.70;53.50;;;;;;5017243;28;20205;-81
2020/12/25 15:27:17;;;;;;;4.55;2.17;;;3.60;54.10;;;;;;5017215;28;20436;-82
2020/12/25 15:29:43;;;;;;;3.17;2.13;;;3.50;54.00;;;;;;5015499;28;20192;-83
2020/12/25 15:32:10;;;;;;;3.22;1.70;;;3.40;53.90;;;;;;4999502;28;20239;-83
2020/12/25 15:34:37;;;;;;;5.50;1.90;;;3.30;54.60;;;;;;4999524;28;20236;-82
2020/12/25 15:37:09;;;;;;;2.08;1.88;;;3.20;55.00;;;;;;4998486;28;20232;-81
2020/12/25 15:39:37;;;;;;;3.55;1.98;;;3.10;56.30;;;;;;5000467;28;20223;-82
2020/12/25 15:42:04;;;;;;;5.72;2.20;;;3.00;56.70;;;;;;5006121;28;20224;-83
2020/12/25 15:44:31;;;;;;;1.90;1.75;;;3.00;57.80;;;;;;5012152;28;20198;-82
2020/12/25 15:46:58;;;;;;;2.13;1.80;;;2.90;57.90;;;;;;5007690;28;20216;-81
2020/12/25 15:49:25;;;;;;;3.08;2.45;;;2.90;58.10;;;;;;5015612;28;20214;-82
2020/12/25 15:51:54;;;;;;;5.20;3.53;;;2.80;59.00;;;;;;5005866;28;20236;-82
2020/12/25 15:54:21;;;;;;;4.82;2.10;;;2.70;59.00;;;;;;5000073;28;20212;-81
2020/12/25 15:56:48;;;;;;;4.75;2.15;;;2.50;59.70;;;;;;4997309;28;20701;-81
2020/12/25 15:59:14;;;;;;;2.45;2.00;;;2.50;60.30;;;;;;4997921;28;20333;-82
2020/12/25 16:01:41;;;;;;;2.15;1.80;;;2.50;61.50;;;;;;4997010;28;20300;-82
2020/12/25 16:04:10;;;;;;;2.72;1.95;;;2.60;61.30;;;;;;4999237;28;20231;-82
2020/12/25 16:06:39;;;;;;;2.67;2.17;;;2.70;60.50;;;;;;4998036;28;20210;-82
2020/12/25 16:09:06;;;;;;;5.05;2.03;;;2.60;60.80;;;;;;4999072;28;20304;-82
2020/12/25 16:11:33;;;;;;;2.72;1.88;;;2.50;60.70;;;;;;4997693;28;20323;-82
2020/12/25 16:13:59;;;;;;;3.40;2.53;;;2.50;61.40;;;;;;4997284;28;20252;-82
2020/12/25 16:16:32;;;;;;;8.43;2.22;;;2.40;62.10;;;;;;5001191;28;20303;-82
2020/12/25 16:18:58;;;;;;;4.57;3.05;;;2.50;62.20;;;;;;4997316;28;20263;-81
2020/12/25 16:21:25;;;;;;;4.45;3.60;;;2.50;61.60;;;;;;4998315;28;20275;-82
2020/12/25 16:23:52;;;;;;;5.95;3.35;;;2.30;62.10;;;;;;4998841;28;20207;-81
2020/12/25 16:26:18;;;;;;;7.25;3.17;;;2.30;62.00;;;;;;4996060;28;20306;-81
2020/12/25 16:28:45;;;;;;;3.47;3.17;;;2.10;63.10;;;;;;4997929;28;20650;-82
2020/12/25 16:31:11;;;;;;;6.28;3.33;;;2.10;64.20;;;;;;4997638;28;20209;-81
2020/12/25 16:33:38;;;;;;;4.72;3.10;;;2.10;64.80;;;;;;4998267;28;20193;-81
2020/12/25 16:36:04;;;;;;;4.47;3.20;;;2.00;66.00;;;;;;5009462;28;20260;-83
2020/12/25 16:38:31;;;;;;;5.38;3.15;;;2.00;66.10;;;;;;5016015;28;20198;-82
2020/12/25 16:40:59;;;;;;;3.92;3.25;;;2.00;67.20;;;;;;5015909;28;20227;-81
2020/12/25 16:43:26;;;;;;;4.40;3.35;;;2.00;68.20;;;;;;5002221;28;20312;-80
2020/12/25 16:45:53;;;;;;;4.95;3.53;;;2.00;69.10;;;;;;4996818;28;20296;-81
2020/12/25 16:48:20;;;;;;;3.47;3.15;;;1.90;70.40;;;;;;4997930;28;20387;-82
2020/12/25 16:50:46;;;;;;;4.50;2.97;;;1.90;70.40;;;;;;4998306;28;20205;-82
2020/12/25 16:53:13;;;;;;;5.05;3.70;;;1.80;71.10;;;;;;5004846;28;20359;-82
2020/12/25 16:55:39;;;;;;;5.13;3.20;;;2.00;72.00;;;;;;5011751;28;20240;-82
2020/12/25 16:58:06;;;;;;;3.78;3.20;;;2.10;72.20;;;;;;4999841;28;20232;-81
2020/12/25 17:00:33;;;;;;;4.00;2.92;;;2.20;71.60;;;;;;4997009;28;20272;-82
2020/12/25 17:02:59;;;;;;;4.50;2.70;;;2.30;70.70;;;;;;4997151;28;20230;-81
2020/12/25 17:05:26;;;;;;;3.85;2.80;;;2.50;68.50;;;;;;5002623;28;20247;-82
2020/12/25 17:07:52;;;;;;;3.83;2.95;;;2.50;66.60;;;;;;5003748;28;20809;-81
2020/12/25 17:10:19;;;;;;;8.07;3.35;;;2.50;64.80;;;;;;5004249;28;20233;-81
2020/12/25 17:12:45;;;;;;;3.10;2.50;;;2.40;65.10;;;;;;5005919;28;20240;-81
2020/12/25 17:15:13;;;;;;;2.80;2.47;;;2.30;64.90;;;;;;5002087;28;20208;-81
2020/12/25 17:17:40;;;;;;;4.57;2.97;;;2.30;64.50;;;;;;5003412;28;20264;-81
2020/12/25 17:20:06;;;;;;;5.75;3.10;;;2.20;64.00;;;;;;5000141;28;20217;-82
2020/12/25 17:22:33;;;;;;;4.80;3.28;;;2.10;64.90;;;;;;5006490;28;20264;-83
2020/12/25 17:24:59;;;;;;;3.00;2.65;;;2.00;66.10;;;;;;5005319;28;20212;-82
2020/12/25 17:27:25;;;;;;;5.00;3.40;;;2.00;68.10;;;;;;5001588;28;20725;-82
2020/12/25 17:29:53;;;;;;;5.97;2.90;;;2.10;67.80;;;;;;4998163;28;20272;-81
2020/12/25 17:32:20;;;;;;;5.13;3.55;;;2.10;67.40;;;;;;4999823;28;20769;-82
2020/12/25 17:34:47;;;;;;;5.20;3.25;;;2.00;68.00;;;;;;4997959;28;20240;-82
2020/12/25 17:37:16;;;;;;;7.35;3.15;;;1.90;68.90;;;;;;5004610;28;20252;-81
2020/12/25 17:39:42;;;;;;;5.85;3.30;;;1.90;70.40;;;;;;5016594;28;20212;-80
2020/12/25 17:42:09;;;;;;;7.85;3.50;;;1.90;70.50;;;;;;5018478;28;20232;-81
2020/12/25 17:44:38;;;;;;;4.90;3.30;;;1.90;72.10;;;;;;5011739;28;20660;-81
2020/12/25 17:47:05;;;;;;;4.43;3.00;;;2.00;73.60;;;;;;5004702;28;20236;-83
2020/12/25 17:49:32;;;;;;;3.83;3.20;;;1.90;74.20;;;;;;5005100;28;20216;-83
2020/12/25 17:52:00;;;;;;;6.10;3.85;;;1.90;74.70;;;;;;5007638;28;20253;-83
2020/12/25 17:54:27;;;;;;;5.60;3.70;;;1.80;75.70;;;;;;5005501;28;20232;-83
2020/12/25 17:56:54;;;;;;;6.00;4.20;;;1.70;77.00;;;;;;5004236;28;20240;-83
2020/12/25 17:59:20;;;;;;;7.97;4.55;;;1.70;78.60;;;;;;5005291;28;20236;-82
2020/12/25 18:01:47;;;;;;;5.85;3.95;;;1.70;79.00;;;;;;5004128;28;20256;-83
2020/12/25 18:04:13;;;;;;;4.78;3.55;;;1.70;80.20;;;;;;5005127;28;20216;-83
2020/12/25 18:06:41;;;;;;;6.30;3.60;;;1.80;81.10;;;;;;5007812;28;20252;-83
2020/12/25 18:09:07;;;;;;;10.63;5.10;;;1.80;80.30;;;;;;5014558;28;20189;-82
2020/12/25 18:11:33;;;;;;;10.52;4.25;;;1.90;80.20;;;;;;5018159;28;20225;-84
2020/12/25 18:14:00;;;;;;;4.03;3.40;;;1.90;79.90;;;;;;5015301;28;20212;-83
2020/12/25 18:16:26;;;;;;;5.35;3.60;;;1.80;79.90;;;;;;5005567;28;20231;-83
2020/12/25 18:18:53;;;;;;;5.65;4.18;;;1.70;80.40;;;;;;5003708;28;20299;-82
2020/12/25 18:21:19;;;;;;;5.30;4.32;;;1.70;80.40;;;;;;5005185;28;20243;-82
2020/12/25 18:23:48;;;;;;;7.38;5.10;;;1.60;80.50;;;;;;5010248;28;20209;-83
2020/12/25 18:26:16;;;;;;;8.60;4.72;;;1.50;80.40;;;;;;5003166;28;20212;-83
2020/12/25 18:28:42;;;;;;;9.60;5.40;;;1.40;81.20;;;;;;5002864;28;20212;-83
2020/12/25 18:31:09;;;;;;;7.10;5.53;;;1.40;82.50;;;;;;5003144;28;20292;-82
2020/12/25 18:33:35;;;;;;;11.18;6.25;;;1.40;83.10;;;;;;5003973;28;20209;-83
2020/12/25 18:36:06;;;;;;;8.40;6.00;;;1.30;83.50;;;;;;5004647;28;20252;-83
2020/12/25 18:38:33;;;;;;;7.82;5.75;;;1.30;84.20;;;;;;5015383;28;20204;-82
2020/12/25 18:41:00;;;;;;;6.32;5.68;;;1.30;84.70;;;;;;5015632;28;20201;-83
2020/12/25 18:43:27;;;;;;;8.27;6.10;;;1.20;85.30;;;;;;5015388;28;20207;-82
2020/12/25 18:45:53;;;;;;;9.23;6.53;;;1.20;86.40;;;;;;5015609;28;20251;-82
2020/12/25 18:48:20;;;;;;;8.20;6.38;;;1.20;86.40;;;;;;5015226;28;20201;-82
2020/12/25 18:50:47;;;;;;;9.15;6.78;;;1.20;86.40;;;;;;5007101;28;20224;-82
2020/12/25 18:53:13;;;;;;;15.13;6.97;;;1.20;87.20;;;;;;5008185;28;20225;-83
2020/12/25 18:55:40;;;;;;;10.77;7.20;;;1.30;87.60;;;;;;5005256;28;20236;-83
2020/12/25 18:58:07;;;;;;;7.32;6.07;;;1.20;87.90;;;;;;5007068;28;20239;-82
2020/12/25 19:00:34;;;;;;;9.52;7.53;;;1.20;88.10;;;;;;5015636;28;20216;-82
2020/12/25 19:03:01;;;;;;;11.27;7.45;;;1.20;88.30;;;;;;5014929;28;20328;-83
2020/12/25 19:05:27;;;;;;;8.73;7.15;;;1.30;88.60;;;;;;5015268;28;20207;-83
2020/12/25 19:07:54;;;;;;;13.38;7.32;;;1.40;88.60;;;;;;5015050;28;20195;-83
2020/12/25 19:10:20;;;;;;;10.43;7.25;;;1.30;87.80;;;;;;5015641;28;20252;-82
2020/12/25 19:12:47;;;;;;;9.80;6.72;;;1.20;87.70;;;;;;5015280;28;20252;-82
2020/12/25 19:15:14;;;;;;;10.40;7.00;;;1.30;88.40;;;;;;5014727;28;20217;-83
2020/12/25 19:17:41;;;;;;;13.43;6.82;;;1.30;88.30;;;;;;5002576;28;20685;-82
2020/12/25 19:20:07;;;;;;;11.15;7.43;;;1.20;88.10;;;;;;5002660;28;20228;-82
2020/12/25 19:22:36;;;;;;;14.15;7.70;;;1.20;88.20;;;;;;5001965;28;20275;-82
2020/12/25 19:25:04;;;;;;;9.77;7.03;;;1.10;89.00;;;;;;5002308;28;20275;-82